Kinross, MI (49752)

12:29 PM EDT on July 29, 2015 (GMT -0400)
MesoWest | | Change Station
CLOSE
Current Station
Personal Weather Station
Location: Rudyard, MI
Elevation: 668 ft
Nearby Weather Stations

Elev 668 ft 46.19 °N, 84.56 °W | Updated 49 minutes ago

Overcast
Overcast
83 °F
Feels Like 92 °F
N
11
Wind Variable Wind from SW
Gusts 17.0 mph

Today
High -- | Low -- °F
--% Chance of Precip.
Yesterday
High -- | Low -- °F
Precip. -- in
6:16 AM 9:12 PM
Waxing Gibbous, 96% visible
Pressure 29.79 in
Visibility 10.0 miles
Clouds Overcast 1800 ft
Heat Index 92 °F
Dew Point 78 °F
Humidity 83%
Rainfall in
Snow Depth Not available.
UV 3 out of 12
Pollen 5.20 out of 12
Air Quality Not available.
Flu Activity Not available.
METAR KCIU 291615Z AUTO 19008KT 10SM OVC018 26/22 A2979 RMK AO1

More Conditions Fewer Conditions

Pressure 29.79 in
Visibility 10.0 miles
Clouds Overcast 1800 ft
Heat Index 92 °F
Dew Point 78 °F
Humidity 83%
Rainfall in
Snow Depth Not available.
UV 3 out of 12
Pollen 5.20 out of 12
Air Quality Not available.
Flu Activity Not available.
METAR KCIU 291615Z AUTO 19008KT 10SM OVC018 26/22 A2979 RMK AO1

More Conditions Fewer Conditions

Nowcast | as of 12:00 PM EDT on July 29, 2015

At 1 PM...mostly clear. Slight chance of showers. Temperature 79. Southwest winds 12 mph. At 3 PM...mostly clear. Temperature 79. Southwest winds 13 mph. At 5 PM...mostly clear. Temperature 79. West winds 13 mph. At 7 PM...mostly clear. Temperature 75. West winds 9 mph.

×

10-Day Weather Forecast

×

Almanac

Astronomy

Jul. 29, 2015 Rise Set
Actual Time
Civil Twilight
Nautical Twilight
Astronomical Twilight
Moon
Length of Visible Light
Length of Day
Tomorrow will be .
, % of the Moon is Illuminated

Today's Extremes

State Highs State Lows

Community

WunderPhotos

Upload Photos

1,842,126 photos uploaded!

WunderBlogs® & News

Nearby

Air Quality

  Air Quality AQ Index Pollutant
Not available.

Snow Depth

Station Depth Elevation

Earthquake Activity

City Distance Mag. Time & Date
Minimum magnitude displayed is 2.5.

Coastal Water Temperatures

Place Temperature

Stations

Nearby Weather Stations

Station Location Temp. Windchill Dew Point Humidity Wind Precip. Elev Updated Type